Time;durP1;ratioP1;P1;durP2;ratioP2;P2;SDS_P1;SDS_P2;PMS_P1;PMS_P2;Temp;Humidity;BMP_temperature;BMP_pressure;BME280_temperature;BME280_humidity;BME280_pressure;Samples;Min_cycle;Max_cycle;Signal;HPM_P1;HPM_P2
2023/11/19 00:00:23;;;;;;;0.30;0.30;;;;;;;5.85;57.66;100492.94;4425680;32;36063;-79
2023/11/19 00:02:52;;;;;;;0.08;0.08;;;;;;;6.05;56.76;100475.19;4452495;32;33953;-80
2023/11/19 00:05:20;;;;;;;0.25;0.25;;;;;;;5.85;56.87;100488.56;4427442;32;33696;-80
2023/11/19 00:07:47;;;;;;;0.80;0.80;;;;;;;5.67;57.83;100483.56;4427065;32;33029;-80
2023/11/19 00:10:18;;;;;;;0.03;0.03;;;;;;;5.72;57.53;100475.62;4424879;32;34237;-80
2023/11/19 00:12:48;;;;;;;0.85;0.85;;;;;;;5.71;57.71;100479.16;4439720;32;33689;-81
2023/11/19 00:15:18;;;;;;;0.15;0.15;;;;;;;5.61;58.02;100481.03;4425825;32;34059;-80
2023/11/19 00:17:47;;;;;;;0.00;0.00;;;;;;;5.82;57.51;100478.09;4440302;32;33680;-81
2023/11/19 00:20:18;;;;;;;0.00;0.00;;;;;;;5.54;58.29;100476.72;4439934;32;34191;-80
2023/11/19 00:22:50;;;;;;;0.40;0.40;;;;;;;5.71;57.82;100482.62;4439636;32;33825;-79
2023/11/19 00:25:21;;;;;;;0.35;0.35;;;;;;;5.63;57.92;100490.56;4426869;32;33794;-79
2023/11/19 00:27:51;;;;;;;0.22;0.22;;;;;;;5.63;57.85;100494.94;4439662;32;34296;-80
2023/11/19 00:30:19;;;;;;;0.30;0.30;;;;;;;5.51;58.54;100495.13;4439278;32;33232;-80
2023/11/19 00:32:47;;;;;;;0.90;0.88;;;;;;;5.62;58.25;100508.94;4439858;32;33403;-80
2023/11/19 00:35:15;;;;;;;0.45;0.45;;;;;;;5.61;58.08;100509.84;4452358;32;34395;-80
2023/11/19 00:37:45;;;;;;;0.00;0.00;;;;;;;5.64;58.26;100513.25;4438724;32;34549;-80
2023/11/19 00:40:15;;;;;;;0.77;0.77;;;;;;;5.50;58.46;100501.22;4439797;32;32947;-80
2023/11/19 00:42:44;;;;;;;0.62;0.62;;;;;;;5.49;58.85;100489.88;4426756;32;33294;-80
2023/11/19 00:45:12;;;;;;;0.10;0.10;;;;;;;5.50;58.91;100491.59;4427456;32;34964;-80
2023/11/19 00:47:40;;;;;;;0.35;0.20;;;;;;;5.58;58.73;100483.66;4439260;32;34773;-79
2023/11/19 00:50:09;;;;;;;0.70;0.70;;;;;;;5.60;58.67;100488.03;4439356;32;33269;-79
2023/11/19 00:52:38;;;;;;;2.95;2.28;;;;;;;5.63;58.81;100487.97;4439199;32;34603;-79
2023/11/19 00:55:06;;;;;;;0.75;0.65;;;;;;;5.53;58.88;100480.25;4439704;32;34749;-79
2023/11/19 00:57:35;;;;;;;0.85;0.85;;;;;;;5.43;59.35;100483.84;4439038;32;35205;-79
2023/11/19 01:00:24;;;;;;;0.50;0.28;;;;;;;5.56;58.62;100477.59;4439115;32;33633;-80
2023/11/19 01:02:51;;;;;;;0.68;0.62;;;;;;;5.66;58.20;100481.81;4440784;32;33749;-80
2023/11/19 01:05:22;;;;;;;0.03;0.03;;;;;;;5.48;58.70;100482.91;4439474;32;34066;-81
2023/11/19 01:07:52;;;;;;;2.12;1.17;;;;;;;5.47;58.82;100481.19;4425734;32;34343;-80
2023/11/19 01:10:20;;;;;;;0.00;0.00;;;;;;;5.45;59.18;100477.69;4439237;32;34244;-80
2023/11/19 01:12:48;;;;;;;1.08;0.62;;;;;;;5.35;59.67;100482.19;4422033;32;33935;-80
2023/11/19 01:15:18;;;;;;;0.43;0.43;;;;;;;5.29;59.85;100484.87;4424575;32;34499;-80
2023/11/19 01:17:46;;;;;;;0.75;0.47;;;;;;;5.26;59.25;100482.28;4438000;32;32728;-80
2023/11/19 01:20:17;;;;;;;2.17;1.87;;;;;;;5.16;60.07;100475.41;4452666;32;33822;-80
2023/11/19 01:22:45;;;;;;;0.10;0.10;;;;;;;5.40;59.10;100475.13;4439289;32;34462;-80
2023/11/19 01:25:13;;;;;;;7.12;0.68;;;;;;;5.35;59.15;100471.72;4419231;32;34161;-80
2023/11/19 01:27:41;;;;;;;0.37;0.37;;;;;;;5.11;59.88;100472.84;4439154;32;34130;-80
2023/11/19 01:30:12;;;;;;;0.45;0.45;;;;;;;5.32;59.30;100471.75;4439341;32;33553;-80
2023/11/19 01:32:41;;;;;;;0.10;0.10;;;;;;;5.26;59.65;100476.19;4425198;32;34764;-80
2023/11/19 01:35:08;;;;;;;0.20;0.20;;;;;;;5.29;59.43;100476.16;4438207;32;34169;-80
2023/11/19 01:37:36;;;;;;;0.60;0.22;;;;;;;5.16;60.12;100479.78;4418231;32;32865;-79
2023/11/19 01:40:06;;;;;;;0.45;0.45;;;;;;;5.09;59.73;100474.63;4439885;32;32576;-80
2023/11/19 01:42:38;;;;;;;0.35;0.35;;;;;;;4.99;60.47;100477.37;4438907;32;34568;-79
2023/11/19 01:45:08;;;;;;;0.20;0.20;;;;;;;5.20;59.79;100474.50;4439082;32;34619;-80
2023/11/19 01:47:38;;;;;;;1.17;1.02;;;;;;;5.18;60.19;100471.06;4453047;32;34417;-79
2023/11/19 01:50:08;;;;;;;5.03;2.73;;;;;;;5.12;60.51;100463.25;4426217;32;32517;-79
2023/11/19 01:52:37;;;;;;;0.13;0.13;;;;;;;5.24;59.87;100457.87;4438920;32;33489;-79
2023/11/19 01:55:07;;;;;;;0.32;0.32;;;;;;;5.24;60.01;100457.87;4439231;32;33359;-79
2023/11/19 01:57:37;;;;;;;9.85;1.27;;;;;;;5.28;59.57;100443.87;4429833;32;33754;-79
2023/11/19 02:00:11;;;;;;;0.25;0.25;;;;;;;5.27;59.75;100434.28;4427657;32;33608;-79
2023/11/19 02:02:40;;;;;;;0.10;0.10;;;;;;;5.27;59.87;100436.91;4418292;32;34744;-79
2023/11/19 02:05:11;;;;;;;2.22;1.00;;;;;;;5.26;59.67;100429.06;4432461;32;32750;-79
2023/11/19 02:07:44;;;;;;;1.02;0.90;;;;;;;5.17;60.27;100422.16;4429398;32;34677;-80
2023/11/19 02:10:14;;;;;;;1.83;0.55;;;;;;;5.10;60.30;100418.78;4414558;32;34290;-79
2023/11/19 02:12:45;;;;;;;0.30;0.30;;;;;;;5.23;59.94;100426.50;4436867;32;33404;-80
2023/11/19 02:15:13;;;;;;;0.00;0.00;;;;;;;5.14;60.24;100430.06;4428313;32;34972;-80
2023/11/19 02:17:41;;;;;;;0.30;0.30;;;;;;;5.34;59.31;100432.47;4427508;32;34426;-79
2023/11/19 02:20:11;;;;;;;0.00;0.00;;;;;;;5.37;58.87;100428.06;4415882;32;33355;-79
2023/11/19 02:22:40;;;;;;;0.37;0.37;;;;;;;5.27;59.26;100426.44;4412738;32;32824;-79
2023/11/19 02:25:12;;;;;;;0.88;0.85;;;;;;;5.08;60.00;100417.03;4439392;32;33562;-79
2023/11/19 02:27:44;;;;;;;0.65;0.65;;;;;;;5.12;59.54;100411.75;4420748;32;33335;-79
2023/11/19 02:30:14;;;;;;;0.00;0.00;;;;;;;4.85;60.00;100412.09;4426652;32;32505;-79
2023/11/19 02:32:42;;;;;;;0.62;0.32;;;;;;;5.05;nan;100419.72;4428776;32;32659;-80
2023/11/19 02:35:11;;;;;;;0.00;0.00;;;;;;;4.93;60.12;100417.22;4427508;32;33825;-80
2023/11/19 02:37:38;;;;;;;0.43;0.43;;;;;;;4.80;60.33;100430.44;4426590;32;34358;-80
2023/11/19 02:40:08;;;;;;;0.08;0.08;;;;;;;4.78;60.62;100432.19;4427804;32;34237;-79
2023/11/19 02:42:37;;;;;;;0.00;0.00;;;;;;;4.82;60.60;100427.81;4426639;32;33183;-79
2023/11/19 02:45:07;;;;;;;2.08;0.85;;;;;;;5.02;59.58;100415.38;4428845;32;33836;-79
2023/11/19 02:47:35;;;;;;;0.15;0.15;;;;;;;4.94;59.83;100406.75;4428124;32;34744;-79
2023/11/19 02:50:06;;;;;;;0.20;0.20;;;;;;;4.95;59.52;100400.63;4426447;32;33070;-79
2023/11/19 02:52:37;;;;;;;0.00;0.00;;;;;;;4.90;59.59;100391.09;4426382;32;34645;-80
2023/11/19 02:55:15;;;;;;;0.68;0.68;;;;;;;4.89;59.93;100390.25;4427379;32;34525;-80
2023/11/19 02:57:48;;;;;;;0.30;0.30;;;;;;;4.94;59.55;100390.16;4428000;32;33722;-79
2023/11/19 03:00:24;;;;;;;0.47;0.35;;;;;;;4.84;59.35;100390.28;4426757;32;33627;-80
2023/11/19 03:02:59;;;;;;;0.37;0.37;;;;;;;4.76;59.66;100392.13;4422378;32;33297;-79
2023/11/19 03:05:30;;;;;;;0.28;0.28;;;;;;;4.48;60.70;100383.66;4428165;32;34045;-79
2023/11/19 03:07:58;;;;;;;0.43;0.43;;;;;;;4.49;60.60;100384.53;4409164;32;33144;-80
2023/11/19 03:10:26;;;;;;;0.00;0.00;;;;;;;4.40;61.08;100385.47;4426243;32;33343;-79
2023/11/19 03:12:56;;;;;;;0.00;0.00;;;;;;;4.41;61.15;100374.12;4426223;32;34562;-80
2023/11/19 03:15:24;;;;;;;0.00;0.00;;;;;;;4.46;61.45;100381.94;4414823;32;32973;-80
2023/11/19 03:17:52;;;;;;;0.10;0.10;;;;;;;4.59;61.07;100378.31;4430371;32;33370;-80
2023/11/19 03:20:20;;;;;;;0.15;0.15;;;;;;;4.45;61.49;100367.13;4428659;32;33234;-81
2023/11/19 03:22:48;;;;;;;0.30;0.30;;;;;;;4.63;60.70;100364.34;4420244;32;32520;-82
2023/11/19 03:25:16;;;;;;;0.43;0.43;;;;;;;4.77;60.02;100365.06;4414491;32;33930;-81
2023/11/19 03:27:44;;;;;;;0.62;0.35;;;;;;;4.73;60.26;100371.19;4414351;32;32992;-80
2023/11/19 03:30:12;;;;;;;0.10;0.10;;;;;;;4.39;61.66;100375.91;4429205;32;33649;-80
2023/11/19 03:32:39;;;;;;;0.03;0.03;;;;;;;4.36;61.37;100371.56;4440812;32;33562;-80
2023/11/19 03:35:09;;;;;;;1.00;0.73;;;;;;;4.58;60.80;100368.75;4429780;32;34725;-80
2023/11/19 03:37:39;;;;;;;0.22;0.22;;;;;;;4.68;60.51;100386.09;4440810;32;34830;-80
2023/11/19 03:40:08;;;;;;;0.30;0.30;;;;;;;4.52;61.03;100379.28;4424902;32;33662;-80
2023/11/19 03:42:36;;;;;;;0.10;0.10;;;;;;;4.30;61.67;100358.56;4427043;32;34557;-80
2023/11/19 03:45:04;;;;;;;0.00;0.00;;;;;;;4.60;60.47;100348.66;4428057;32;33767;-80
2023/11/19 03:47:32;;;;;;;4.32;0.95;;;;;;;4.35;60.73;100343.69;4420809;32;33674;-80
2023/11/19 03:50:00;;;;;;;0.85;0.85;;;;;;;4.28;61.32;100338.56;4413974;32;32887;-80
2023/11/19 03:52:27;;;;;;;0.82;0.37;;;;;;;4.34;61.61;100331.50;4427690;32;34646;-80
2023/11/19 03:54:59;;;;;;;0.93;0.93;;;;;;;4.33;62.06;100327.16;4428646;32;34654;-80
2023/11/19 03:57:28;;;;;;;0.35;0.20;;;;;;;4.20;62.48;100322.06;4427877;32;34879;-80
2023/11/19 03:59:58;;;;;;;0.15;0.15;;;;;;;4.39;61.52;100330.59;4413451;32;34123;-80
2023/11/19 04:02:29;;;;;;;1.08;0.98;;;;;;;4.40;61.75;100325.34;4425937;32;33516;-80
2023/11/19 04:04:57;;;;;;;4.12;1.05;;;;;;;4.33;61.94;100323.69;4422153;32;33752;-80
2023/11/19 04:07:24;;;;;;;0.47;0.45;;;;;;;4.51;61.31;100312.16;4414569;32;33969;-79
2023/11/19 04:09:52;;;;;;;0.85;0.85;;;;;;;4.59;61.20;100302.47;4425627;32;32757;-79
2023/11/19 04:12:21;;;;;;;0.00;0.00;;;;;;;4.54;61.15;100297.28;4426773;32;33948;-79
2023/11/19 04:14:50;;;;;;;0.62;0.62;;;;;;;4.44;61.18;100300.91;4426711;32;34556;-80
2023/11/19 04:17:28;;;;;;;0.37;0.37;;;;;;;4.28;62.13;100296.72;4438284;32;34487;-80
2023/11/19 04:19:56;;;;;;;1.35;0.30;;;;;;;4.28;61.97;100297.59;4426465;32;33484;-79
2023/11/19 04:22:24;;;;;;;0.00;0.00;;;;;;;4.12;61.78;100303.84;4426479;32;32722;-80
2023/11/19 04:24:52;;;;;;;0.10;0.10;;;;;;;4.15;61.60;100301.19;4428686;32;35186;-80
2023/11/19 04:27:19;;;;;;;0.52;0.52;;;;;;;4.03;62.48;100299.56;4426346;32;33709;-79
2023/11/19 04:29:47;;;;;;;0.40;0.40;;;;;;;4.12;61.81;100289.00;4428016;32;33657;-79
2023/11/19 04:32:15;;;;;;;0.90;0.90;;;;;;;4.05;61.69;100291.72;4428074;32;33982;-80
2023/11/19 04:34:43;;;;;;;1.25;1.17;;;;;;;4.28;61.33;100291.50;4414580;32;34511;-79
2023/11/19 04:37:11;;;;;;;0.00;0.00;;;;;;;4.32;60.73;100291.47;4414412;32;33835;-80
2023/11/19 04:39:40;;;;;;;0.10;0.10;;;;;;;4.30;61.23;100294.94;4415018;32;32856;-79
2023/11/19 04:42:08;;;;;;;0.13;0.13;;;;;;;4.18;61.59;100292.44;4429186;32;34579;-80
2023/11/19 04:44:36;;;;;;;0.17;0.17;;;;;;;3.91;61.79;100309.28;4412440;32;33142;-79
2023/11/19 04:47:03;;;;;;;;;;;;;;;4.27;61.11;100303.72;4428759;32;33769;-80
2023/11/19 04:49:31;;;;;;;;;;;;;;;4.32;60.18;100314.09;4428938;32;33618;-80
2023/11/19 04:51:59;;;;;;;;;;;;;;;4.05;61.39;100333.53;4417159;32;34886;-79
2023/11/19 04:54:27;;;;;;;;;;;;;;;4.09;61.23;100322.19;4416643;32;33767;-80
2023/11/19 04:56:54;;;;;;;;;;;;;;;4.27;61.15;100332.47;4413854;32;34105;-79
2023/11/19 04:59:22;;;;;;;;;;;;;;;4.25;60.80;100328.13;4415865;32;34742;-79
2023/11/19 05:01:51;;;;;;;;;;;;;;;4.21;61.40;100321.19;4428800;32;33321;-79
2023/11/19 05:04:18;;;;;;;;;;;;;;;4.65;59.55;100306.78;4418337;32;33125;-79
2023/11/19 05:06:47;;;;;;;;;;;;;;;4.26;60.60;100301.94;4414800;32;33274;-80
2023/11/19 05:09:14;;;;;;;;;;;;;;;4.29;60.47;100301.94;4418885;32;34193;-80
2023/11/19 05:11:43;;;;;;;;;;;;;;;4.15;61.11;100313.41;4426941;32;34986;-80
2023/11/19 05:14:13;;;;;;;;;;;;;;;4.25;61.33;100312.44;4414980;32;33785;-79
2023/11/19 05:16:42;;;;;;;;;;;;;;;4.28;61.45;100309.81;4418434;32;34787;-80
2023/11/19 05:19:10;;;;;;;;;;;;;;;4.26;61.41;100311.53;4430430;32;34157;-80
2023/11/19 05:21:37;;;;;;;;;;;;;;;4.40;61.28;100324.47;4417769;32;33165;-80
2023/11/19 05:24:05;;;;;;;;;;;;;;;4.20;61.73;100328.16;4440479;32;34440;-81
2023/11/19 05:26:33;;;;;;;;;;;;;;;4.33;61.63;100305.37;4428328;32;34212;-80
2023/11/19 05:29:00;;;;;;;;;;;;;;;4.36;61.45;100303.59;4429419;32;33639;-80
2023/11/19 05:31:27;;;;;;;;;;;;;;;4.49;61.44;100308.69;4431039;32;34022;-80
2023/11/19 05:33:55;;;;;;;;;;;;;;;4.34;61.96;100300.12;4415861;32;33166;-80
2023/11/19 05:36:22;;;;;;;;;;;;;;;4.36;61.87;100293.12;4416451;32;34701;-79
2023/11/19 05:38:50;;;;;;;;;;;;;;;4.52;61.41;100288.63;4415522;32;33403;-80
2023/11/19 05:41:18;;;;;;;;;;;;;;;4.53;61.46;100299.94;4427182;32;33771;-80
2023/11/19 05:43:46;;;;;;;;;;;;;;;4.43;61.61;100306.16;4427778;32;34391;-80
2023/11/19 05:46:13;;;;;;;;;;;;;;;4.51;61.87;100302.59;4413373;32;33116;-80
2023/11/19 05:48:45;;;;;;;;;;;;;;;4.45;61.92;100294.78;4417177;32;32937;-81
2023/11/19 05:51:14;;;;;;;;;;;;;;;4.24;62.23;100290.66;4442399;32;34211;-80
2023/11/19 05:53:42;;;;;;;;;;;;;;;4.44;61.87;100285.22;4429299;32;33873;-80
2023/11/19 05:56:10;;;;;;;;;;;;;;;4.27;62.34;100297.59;4420200;32;35200;-80
2023/11/19 05:58:39;;;;;;;;;;;;;;;4.31;62.54;100305.37;4425385;32;33499;-80
2023/11/19 06:01:07;;;;;;;;;;;;;;;4.45;62.06;100307.00;4437916;32;33967;-80
2023/11/19 06:03:36;;;;;;;;;;;;;;;4.24;62.73;100314.19;4438404;32;35180;-80
2023/11/19 06:06:06;;;;;;;;;;;;;;;4.43;62.12;100306.16;4437249;32;33560;-80
2023/11/19 06:08:33;;;;;;;;;;;;;;;4.91;60.02;100290.78;4438165;32;33559;-80
2023/11/19 06:11:01;;;;;;;;;;;;;;;4.97;59.57;100288.94;4439012;32;34641;-80
2023/11/19 06:13:30;;;;;;;;;;;;;;;4.62;60.22;100286.75;4432820;32;33415;-80
2023/11/19 06:15:58;;;;;;;;;;;;;;;4.58;61.27;100278.06;4430498;32;33928;-80
2023/11/19 06:18:27;;;;;;;;;;;;;;;4.52;61.74;100277.28;4431009;32;33718;-81
2023/11/19 06:20:55;;;;;;;;;;;;;;;4.56;61.73;100279.88;4434060;32;32838;-80
2023/11/19 06:23:22;;;;;;;;;;;;;;;4.41;62.18;100280.00;4437520;32;34089;-80
2023/11/19 06:25:49;;;;;;;;;;;;;;;4.32;62.68;100280.09;4437348;32;34649;-80
2023/11/19 06:28:17;;;;;;;;;;;;;;;4.48;61.95;100281.69;4435640;32;33591;-80
2023/11/19 06:30:45;;;;;;;;;;;;;;;4.56;62.22;100263.31;4435549;32;34174;-81
2023/11/19 06:33:16;;;;;;;;;;;;;;;4.52;62.43;100259.00;4438031;32;34230;-81
2023/11/19 06:35:43;;;;;;;;;;;;;;;4.53;62.62;100255.47;4420691;32;34430;-80
2023/11/19 06:38:11;;;;;;;;;;;;;;;4.59;62.55;100260.63;4438804;32;35547;-81
2023/11/19 06:40:39;;;;;;;;;;;;;;;4.65;62.32;100265.78;4437791;32;33998;-80
2023/11/19 06:43:08;;;;;;;;;;;;;;;4.64;62.70;100266.66;4437383;32;34307;-81
2023/11/19 06:45:39;;;;;;;;;;;;;;;4.84;62.03;100267.31;4437449;32;35091;-81
2023/11/19 06:48:07;;;;;;;;;;;;;;;5.17;60.69;100265.09;4432654;32;33406;-81
2023/11/19 06:50:34;;;;;;;;;;;;;;;5.44;nan;100262.97;4437276;32;33550;-80
2023/11/19 06:53:02;;;;;;;2.28;1.10;;;;;;;5.57;59.14;100251.41;4438536;32;34147;-80
2023/11/19 06:55:30;;;;;;;1.37;1.33;;;;;;;5.27;59.74;100258.88;4437682;32;33330;-80
2023/11/19 06:58:00;;;;;;;0.85;0.85;;;;;;;5.40;60.27;100249.03;4436718;32;33478;-80
2023/11/19 07:00:28;;;;;;;2.62;2.20;;;;;;;5.53;59.89;100244.50;4449849;32;34005;-81
2023/11/19 07:02:56;;;;;;;2.70;2.58;;;;;;;5.38;59.87;100230.75;4434818;32;33470;-79
2023/11/19 07:05:24;;;;;;;1.85;1.67;;;;;;;5.35;60.89;100241.25;4425093;32;33868;-80
2023/11/19 07:07:52;;;;;;;1.70;1.58;;;;;;;5.60;59.92;100241.75;4424226;32;34776;-80
2023/11/19 07:10:20;;;;;;;0.93;0.93;;;;;;;5.41;60.44;100240.28;4435265;32;33295;-80
2023/11/19 07:12:50;;;;;;;1.52;1.50;;;;;;;5.66;59.40;100246.03;4421524;32;33650;-80
2023/11/19 07:15:18;;;;;;;1.65;1.55;;;;;;;5.56;59.25;100244.47;4436308;32;34065;-80
2023/11/19 07:17:48;;;;;;;0.30;0.30;;;;;;;5.56;59.38;100250.56;4434728;32;33773;-79
2023/11/19 07:20:37;;;;;;;0.90;0.90;;;;;;;5.44;60.11;100239.41;4424043;32;34620;-79
2023/11/19 07:23:06;;;;;;;3.30;1.42;;;;;;;5.60;59.05;100247.00;4411264;32;33022;-79
2023/11/19 07:25:34;;;;;;;0.47;0.30;;;;;;;5.36;59.55;100240.41;4415039;32;32865;-79
2023/11/19 07:28:04;;;;;;;7.55;2.20;;;;;;;5.55;59.65;100254.03;4402986;32;32437;-81
2023/11/19 07:30:32;;;;;;;2.35;2.17;;;;;;;5.66;59.36;100246.03;4433091;32;33440;-80
2023/11/19 07:33:03;;;;;;;2.50;2.30;;;;;;;5.48;59.98;100246.31;4413426;32;34273;-81
2023/11/19 07:35:31;;;;;;;2.17;2.08;;;;;;;5.78;59.53;100230.09;4412785;32;33310;-81
2023/11/19 07:38:00;;;;;;;1.65;0.47;;;;;;;5.86;58.95;100238.69;4412522;32;31853;-82
2023/11/19 07:40:27;;;;;;;0.57;0.57;;;;;;;5.56;60.24;100239.22;4433764;32;32667;-82
2023/11/19 07:42:57;;;;;;;1.52;1.42;;;;;;;5.92;59.48;100252.59;4425156;32;32889;-81
2023/11/19 07:45:27;;;;;;;0.28;0.28;;;;;;;5.78;59.68;100253.66;4424067;32;34903;-84
2023/11/19 07:47:55;;;;;;;2.25;2.08;;;;;;;5.84;59.55;100250.06;4427261;32;34243;-84
2023/11/19 07:50:33;;;;;;;0.80;0.80;;;;;;;5.98;58.78;100261.25;4424545;32;34817;-85
2023/11/19 07:53:18;;;;;;;1.00;1.00;;;;;;;5.93;58.89;100264.81;4423222;32;33390;-85
2023/11/19 07:55:46;;;;;;;4.40;1.52;;;;;;;5.60;60.31;100267.06;4425033;32;34142;-85
2023/11/19 07:58:14;;;;;;;0.45;0.45;;;;;;;5.67;60.33;100268.72;4423174;32;32862;-82
2023/11/19 08:00:42;;;;;;;0.62;0.62;;;;;;;5.81;60.19;100261.50;4440693;32;33139;-82
2023/11/19 08:03:10;;;;;;;3.10;1.98;;;;;;;5.72;60.53;100259.03;4435377;32;34295;-82
2023/11/19 08:05:38;;;;;;;1.02;1.00;;;;;;;5.76;60.51;100244.13;4437034;32;34584;-82
2023/11/19 08:08:06;;;;;;;1.48;1.45;;;;;;;5.80;60.52;100245.81;4423655;32;32390;-83
2023/11/19 08:10:35;;;;;;;1.55;1.00;;;;;;;5.92;60.34;100237.75;4449977;32;33567;-82
2023/11/19 08:13:06;;;;;;;1.85;1.73;;;;;;;6.03;60.12;100237.53;4433414;32;33029;-82
2023/11/19 08:15:33;;;;;;;2.05;1.85;;;;;;;6.17;60.12;100227.66;4429100;32;32000;-82
2023/11/19 08:18:01;;;;;;;0.22;0.22;;;;;;;6.07;60.15;100213.00;4451758;32;33992;-82
2023/11/19 08:20:30;;;;;;;1.42;1.20;;;;;;;6.24;59.76;100192.56;4429287;32;32929;-83
2023/11/19 08:22:57;;;;;;;0.37;0.37;;;;;;;6.19;60.21;100186.56;4439091;32;33819;-82
2023/11/19 08:25:26;;;;;;;1.65;1.55;;;;;;;6.40;59.24;100183.50;4439212;32;33854;-82
2023/11/19 08:27:54;;;;;;;0.55;0.55;;;;;;;6.44;59.27;100179.06;4438681;32;33299;-82
2023/11/19 08:30:22;;;;;;;1.45;1.35;;;;;;;6.29;59.83;100151.38;4438634;32;33776;-83
2023/11/19 08:32:49;;;;;;;2.17;1.98;;;;;;;6.48;59.54;100153.63;4425021;32;33143;-83
2023/11/19 08:35:17;;;;;;;1.27;1.17;;;;;;;6.61;59.27;100166.44;4425435;32;33033;-83
2023/11/19 08:37:46;;;;;;;1.35;1.25;;;;;;;7.01;57.97;100201.44;4438536;32;32834;-83
2023/11/19 08:40:14;;;;;;;1.05;0.70;;;;;;;6.59;58.99;100204.09;4428858;32;33055;-83
2023/11/19 08:42:41;;;;;;;2.28;2.10;;;;;;;6.65;58.96;100194.34;4438090;32;33471;-82
2023/11/19 08:45:10;;;;;;;0.68;0.68;;;;;;;6.35;59.59;100181.88;4425645;32;34206;-82
2023/11/19 08:47:40;;;;;;;6.45;1.95;;;;;;;6.48;59.45;100177.25;4450201;32;34246;-82
2023/11/19 08:50:08;;;;;;;1.65;0.62;;;;;;;6.78;59.16;100160.81;4425675;32;32559;-82
2023/11/19 08:52:36;;;;;;;1.87;1.48;;;;;;;6.85;58.77;100144.03;4434673;32;33204;-83
2023/11/19 08:55:09;;;;;;;0.98;0.98;;;;;;;6.72;59.51;100160.97;4438958;32;33719;-82
2023/11/19 08:57:38;;;;;;;0.68;0.68;;;;;;;6.89;58.16;100179.84;4424330;32;32561;-82
2023/11/19 09:00:07;;;;;;;3.20;1.85;;;;;;;6.89;58.17;100150.97;4438824;32;34371;-82
2023/11/19 09:02:37;;;;;;;1.10;1.02;;;;;;;6.94;57.87;100169.22;4425224;32;33270;-82
2023/11/19 09:05:07;;;;;;;1.87;1.77;;;;;;;7.10;57.98;100180.22;4438059;32;33425;-82
2023/11/19 09:07:35;;;;;;;0.52;0.52;;;;;;;7.07;57.60;100169.78;4421296;32;33916;-82
2023/11/19 09:10:05;;;;;;;1.23;1.17;;;;;;;7.03;57.11;100168.16;4438347;32;33667;-83
2023/11/19 09:12:32;;;;;;;0.85;0.85;;;;;;;7.09;57.51;100174.12;4449356;32;32829;-82
2023/11/19 09:15:01;;;;;;;1.40;0.73;;;;;;;7.08;57.62;100184.66;4424131;32;33053;-82
2023/11/19 09:17:28;;;;;;;2.45;2.20;;;;;;;7.04;57.74;100183.88;4423368;32;32681;-82
2023/11/19 09:19:56;;;;;;;1.45;1.37;;;;;;;7.16;57.84;100186.19;4452602;32;33884;-82
2023/11/19 09:22:25;;;;;;;1.12;1.10;;;;;;;7.14;57.60;100187.13;4437584;32;34359;-81
2023/11/19 09:24:52;;;;;;;1.00;1.00;;;;;;;7.13;57.78;100180.16;4439137;32;34199;-82
2023/11/19 09:27:20;;;;;;;8.60;1.70;;;;;;;7.15;57.19;100176.59;4437406;32;33422;-82
2023/11/19 09:29:51;;;;;;;0.30;0.30;;;;;;;7.26;57.01;100175.47;4423340;32;32529;-82
2023/11/19 09:32:18;;;;;;;0.45;0.45;;;;;;;7.24;57.26;100178.12;4438636;32;33516;-82
2023/11/19 09:34:46;;;;;;;1.50;1.10;;;;;;;7.19;57.53;100175.63;4449040;32;33705;-82
2023/11/19 09:37:15;;;;;;;1.27;1.17;;;;;;;7.25;57.92;100184.25;4425936;32;33327;-82
2023/11/19 09:39:45;;;;;;;1.00;0.93;;;;;;;7.72;55.76;100175.19;4438078;32;33414;-81
2023/11/19 09:42:13;;;;;;;0.73;0.73;;;;;;;7.47;56.54;100163.59;4451853;32;33870;-82
2023/11/19 09:44:42;;;;;;;2.33;2.20;;;;;;;7.53;56.46;100147.66;4437725;32;33826;-82
2023/11/19 09:47:14;;;;;;;2.17;1.30;;;;;;;7.60;56.16;100133.47;4436893;32;33004;-82
2023/11/19 09:49:43;;;;;;;4.37;3.35;;;;;;;7.60;56.42;100138.72;4424849;32;33002;-81
2023/11/19 09:52:11;;;;;;;0.73;0.73;;;;;;;7.45;56.70;100142.59;4426134;32;33092;-82
2023/11/19 09:54:38;;;;;;;2.28;2.15;;;;;;;7.48;56.28;100144.28;4437650;32;34357;-81
2023/11/19 09:57:07;;;;;;;1.75;1.50;;;;;;;7.71;55.97;100144.56;4431792;32;33475;-82
2023/11/19 09:59:36;;;;;;;1.27;1.20;;;;;;;7.47;55.85;100135.53;4420225;32;34032;-80
2023/11/19 10:02:04;;;;;;;1.37;1.27;;;;;;;7.42;55.74;100129.53;4418611;32;33197;-81
2023/11/19 10:04:35;;;;;;;2.05;1.85;;;;;;;7.39;55.30;100113.84;4401299;32;33528;-81
2023/11/19 10:07:03;;;;;;;0.57;0.57;;;;;;;7.41;55.46;100125.19;4420497;32;33253;-81
2023/11/19 10:09:31;;;;;;;2.30;1.25;;;;;;;7.68;54.89;100120.97;4407624;32;32757;-81
2023/11/19 10:11:59;;;;;;;0.32;0.32;;;;;;;7.75;54.46;100109.41;4418509;32;34656;-81
2023/11/19 10:14:28;;;;;;;1.23;1.23;;;;;;;7.87;54.33;100106.41;4422975;32;34420;-81
2023/11/19 10:16:56;;;;;;;1.60;1.50;;;;;;;7.43;54.98;100105.84;4419042;32;33055;-81
2023/11/19 10:19:24;;;;;;;1.85;1.12;;;;;;;7.72;54.47;100105.97;4421569;32;33097;-81
2023/11/19 10:21:52;;;;;;;0.80;0.80;;;;;;;7.16;55.69;100096.03;4406740;32;32462;-81
2023/11/19 10:24:32;;;;;;;1.45;1.35;;;;;;;7.64;54.82;100082.53;4421120;32;33860;-81
2023/11/19 10:27:03;;;;;;;0.28;0.28;;;;;;;7.71;54.93;100089.34;4408316;32;34143;-81
2023/11/19 10:29:31;;;;;;;0.85;0.85;;;;;;;7.83;54.93;100077.63;4421222;32;33637;-81
2023/11/19 10:31:59;;;;;;;4.25;0.75;;;;;;;8.10;54.30;100079.47;4419826;32;34796;-81
2023/11/19 10:34:47;;;;;;;0.93;0.90;;;;;;;7.88;54.61;100079.25;4415135;32;34128;-81
2023/11/19 10:37:31;;;;;;;0.68;0.43;;;;;;;8.09;54.33;100076.91;4415011;32;33485;-81
2023/11/19 10:39:59;;;;;;;1.85;1.50;;;;;;;8.28;53.85;100067.56;4418320;32;35136;-81
2023/11/19 10:42:27;;;;;;;1.37;1.27;;;;;;;8.19;53.67;100070.44;4420386;32;34771;-82
2023/11/19 10:44:55;;;;;;;0.22;0.15;;;;;;;8.45;53.11;100067.06;4407639;32;34098;-81
2023/11/19 10:47:23;;;;;;;0.47;0.47;;;;;;;8.82;52.23;100079.06;4420433;32;34317;-81
2023/11/19 10:49:54;;;;;;;2.57;2.47;;;;;;;8.66;52.61;100078.72;4419618;32;32707;-81
2023/11/19 10:52:21;;;;;;;0.80;0.80;;;;;;;8.61;53.28;100078.00;4414867;32;34373;-81
2023/11/19 10:54:51;;;;;;;1.33;1.25;;;;;;;8.58;53.66;100063.13;4420385;32;34013;-82
2023/11/19 10:57:21;;;;;;;0.75;0.75;;;;;;;8.06;54.78;100067.31;4425697;32;33484;-82
2023/11/19 10:59:55;;;;;;;0.80;0.80;;;;;;;8.51;53.63;100066.03;4426249;32;34371;-83
2023/11/19 11:02:25;;;;;;;1.15;1.05;;;;;;;8.37;54.63;100058.56;4413804;32;34191;-82
2023/11/19 11:04:54;;;;;;;1.75;1.65;;;;;;;8.57;54.81;100050.91;4426232;32;34042;-82
2023/11/19 11:07:25;;;;;;;1.17;0.60;;;;;;;8.56;54.78;100046.56;4428769;32;33232;-82
2023/11/19 11:10:06;;;;;;;3.65;3.35;;;;;;;8.34;55.41;100054.19;4425765;32;33949;-82
2023/11/19 11:12:36;;;;;;;2.58;1.92;;;;;;;7.88;57.03;100045.06;4413054;32;32633;-82
2023/11/19 11:15:06;;;;;;;3.10;2.05;;;;;;;7.84;57.32;100030.28;4403786;32;33243;-82
2023/11/19 11:17:34;;;;;;;0.77;0.77;;;;;;;7.67;57.92;100014.13;4424410;32;33298;-82
2023/11/19 11:20:02;;;;;;;1.02;1.02;;;;;;;7.37;58.70;100008.81;4426603;32;33550;-82
2023/11/19 11:22:40;;;;;;;0.30;0.30;;;;;;;7.56;58.52;100011.81;4426801;32;33752;-82
2023/11/19 11:25:37;;;;;;;0.62;0.60;;;;;;;7.56;58.08;100016.19;4424322;32;34270;-82
2023/11/19 11:28:05;;;;;;;1.70;1.33;;;;;;;7.79;58.19;100018.19;4426426;32;32153;-82
2023/11/19 11:30:52;;;;;;;1.45;1.35;;;;;;;7.34;60.04;100016.78;4428623;32;34332;-82
2023/11/19 11:33:29;;;;;;;0.95;0.95;;;;;;;7.44;59.67;100012.12;4413688;32;33321;-82
2023/11/19 11:36:14;;;;;;;1.58;1.52;;;;;;;7.73;59.17;100018.34;4427137;32;33269;-82
2023/11/19 11:38:41;;;;;;;1.65;1.55;;;;;;;7.29;60.98;100021.28;4429509;32;33187;-82
2023/11/19 11:41:24;;;;;;;0.75;0.75;;;;;;;7.69;59.85;100036.84;4414118;32;34048;-82
2023/11/19 11:43:56;;;;;;;1.75;1.65;;;;;;;7.88;58.63;100017.88;4412755;32;33944;-82
2023/11/19 11:46:36;;;;;;;1.20;1.10;;;;;;;7.91;58.38;100008.16;4425397;32;33846;-82
2023/11/19 11:49:06;;;;;;;7.68;1.55;;;;;;;7.55;58.94;100004.81;4415069;32;32535;-81
2023/11/19 11:51:48;;;;;;;0.08;0.08;;;;;;;7.95;58.25;99990.53;4414376;32;32893;-82
2023/11/19 11:54:22;;;;;;;0.77;0.77;;;;;;;7.40;59.78;99985.06;4438223;32;34747;-82
2023/11/19 11:57:11;;;;;;;0.65;0.65;;;;;;;7.21;61.18;99999.63;4416223;32;34422;-81